Time;durP1;ratioP1;P1;durP2;ratioP2;P2;SDS_P1;SDS_P2;PMS_P1;PMS_P2;Temp;Humidity;BMP_temperature;BMP_pressure;BME280_temperature;BME280_humidity;BME280_pressure;Samples;Min_cycle;Max_cycle;Signal;HPM_P1;HPM_P2
2024/03/19 00:01:48;;;;;;;14.90;10.35;;;10.50;99.90;;;;;;5042034;28;20036;-32
2024/03/19 00:04:14;;;;;;;13.20;10.02;;;10.50;99.90;;;;;;5041332;28;20072;-34
2024/03/19 00:06:39;;;;;;;14.75;10.32;;;10.50;99.90;;;;;;5040727;28;20136;-32
2024/03/19 00:09:07;;;;;;;14.75;10.10;;;10.40;99.90;;;;;;5041666;28;20122;-35
2024/03/19 00:11:33;;;;;;;13.10;9.93;;;10.50;99.90;;;;;;5040266;28;20543;-36
2024/03/19 00:13:58;;;;;;;11.48;9.60;;;10.50;99.90;;;;;;5042035;28;20029;-31
2024/03/19 00:16:24;;;;;;;12.05;9.38;;;10.50;99.90;;;;;;5041858;28;20020;-32
2024/03/19 00:18:50;;;;;;;15.40;9.82;;;10.50;99.90;;;;;;5041284;28;20980;-35
2024/03/19 00:21:15;;;;;;;13.85;10.05;;;10.50;99.90;;;;;;5041289;28;20029;-35
2024/03/19 00:23:41;;;;;;;14.25;9.85;;;10.50;99.90;;;;;;5041807;28;20040;-32
2024/03/19 00:26:10;;;;;;;14.35;9.07;;;10.50;99.90;;;;;;5040950;28;20027;-35
2024/03/19 00:28:36;;;;;;;15.40;9.75;;;10.50;99.90;;;;;;5041553;28;20032;-31
2024/03/19 00:31:03;;;;;;;15.43;10.20;;;10.50;99.90;;;;;;5041210;28;20119;-35
2024/03/19 00:33:28;;;;;;;11.20;8.75;;;10.50;99.90;;;;;;5037824;28;20028;-34
2024/03/19 00:35:55;;;;;;;14.40;9.23;;;10.50;99.90;;;;;;5039219;28;20017;-34
2024/03/19 00:38:26;;;;;;;10.85;8.38;;;10.50;99.90;;;;;;5039233;28;20527;-35
2024/03/19 00:40:51;;;;;;;10.60;8.70;;;10.50;99.90;;;;;;5038750;28;20036;-34
2024/03/19 00:43:17;;;;;;;11.65;8.95;;;10.50;99.90;;;;;;5038876;28;20033;-36
2024/03/19 00:45:43;;;;;;;10.63;7.53;;;10.50;99.90;;;;;;5039293;28;20090;-31
2024/03/19 00:48:11;;;;;;;11.60;8.63;;;10.50;99.90;;;;;;5039738;28;20082;-33
2024/03/19 00:50:36;;;;;;;12.13;8.30;;;10.60;99.90;;;;;;5040068;28;20017;-34
2024/03/19 00:53:02;;;;;;;12.15;8.00;;;10.60;99.90;;;;;;5040775;28;20098;-37
2024/03/19 00:55:28;;;;;;;10.52;7.43;;;10.60;99.90;;;;;;5039560;28;20029;-33
2024/03/19 00:57:53;;;;;;;10.75;8.20;;;10.60;99.90;;;;;;5040775;28;20032;-34
2024/03/19 01:00:19;;;;;;;10.45;7.78;;;10.60;99.90;;;;;;5039848;28;20060;-36
2024/03/19 01:02:45;;;;;;;10.82;7.85;;;10.60;99.90;;;;;;5039866;28;20021;-34
2024/03/19 01:05:11;;;;;;;10.18;7.32;;;10.60;99.90;;;;;;5040644;28;20059;-36
2024/03/19 01:07:41;;;;;;;8.82;7.28;;;10.70;99.90;;;;;;5039933;28;20826;-36
2024/03/19 01:10:08;;;;;;;10.35;7.22;;;10.70;99.90;;;;;;5039757;28;20777;-36
2024/03/19 01:12:38;;;;;;;10.25;7.43;;;10.70;99.90;;;;;;5039305;28;20032;-34
2024/03/19 01:15:05;;;;;;;12.23;8.02;;;10.70;99.90;;;;;;5039800;28;20025;-35
2024/03/19 01:17:35;;;;;;;9.30;7.35;;;10.70;99.90;;;;;;5039574;28;20047;-37
2024/03/19 01:20:04;;;;;;;10.13;8.07;;;10.70;99.90;;;;;;5040103;28;20440;-37
2024/03/19 01:22:30;;;;;;;11.50;7.97;;;10.80;99.90;;;;;;5038617;28;20076;-35
2024/03/19 01:24:55;;;;;;;10.60;7.80;;;10.80;99.90;;;;;;5039832;28;20769;-33
2024/03/19 01:27:21;;;;;;;11.98;7.72;;;10.80;99.90;;;;;;5039433;28;20059;-37
2024/03/19 01:29:47;;;;;;;9.77;7.85;;;10.90;99.90;;;;;;5039519;28;20725;-36
2024/03/19 01:32:13;;;;;;;9.07;7.05;;;10.80;99.90;;;;;;5039884;28;20024;-34
2024/03/19 01:34:38;;;;;;;11.20;7.68;;;10.80;99.90;;;;;;5039760;28;20033;-35
2024/03/19 01:37:04;;;;;;;11.27;7.78;;;10.90;99.90;;;;;;5039123;28;20031;-34
2024/03/19 01:43:14;;;;;;;8.98;6.28;;;10.90;99.90;;;;;;5037618;28;20031;-36
2024/03/19 01:45:40;;;;;;;10.13;6.43;;;10.90;99.90;;;;;;5039222;28;20497;-36
2024/03/19 01:48:06;;;;;;;8.98;6.63;;;10.80;99.90;;;;;;5039349;28;20029;-34
2024/03/19 01:50:32;;;;;;;7.95;6.20;;;10.90;99.90;;;;;;5038810;28;20455;-34
2024/03/19 01:52:57;;;;;;;6.90;6.00;;;10.90;99.90;;;;;;5039276;28;20040;-33
2024/03/19 01:55:24;;;;;;;8.75;6.43;;;10.90;99.90;;;;;;5039166;28;20033;-33
2024/03/19 01:57:52;;;;;;;7.93;6.18;;;10.90;99.90;;;;;;5039069;28;20028;-35
2024/03/19 02:00:17;;;;;;;7.88;5.75;;;10.90;99.90;;;;;;5039200;28;20115;-37
2024/03/19 02:02:43;;;;;;;8.35;6.63;;;10.90;99.90;;;;;;5039989;28;20021;-34
2024/03/19 02:05:12;;;;;;;8.95;6.53;;;10.90;99.90;;;;;;5038635;28;20515;-31
2024/03/19 02:07:38;;;;;;;8.20;5.90;;;10.90;99.90;;;;;;5039063;28;20043;-34
2024/03/19 02:10:06;;;;;;;8.68;6.10;;;10.90;99.90;;;;;;5039161;28;20045;-39
2024/03/19 02:12:31;;;;;;;6.68;5.38;;;10.90;99.90;;;;;;5038643;28;20562;-30
2024/03/19 02:14:57;;;;;;;7.55;5.85;;;10.90;99.90;;;;;;5039589;28;20025;-32
2024/03/19 02:17:23;;;;;;;7.60;5.57;;;10.90;99.90;;;;;;5040223;28;20052;-35
2024/03/19 02:19:49;;;;;;;9.73;6.47;;;11.00;99.90;;;;;;5039303;28;20045;-33
2024/03/19 02:22:15;;;;;;;7.65;5.78;;;11.00;99.90;;;;;;5039811;28;20029;-36
2024/03/19 02:24:45;;;;;;;6.30;5.13;;;11.00;99.90;;;;;;5039123;28;20040;-34
2024/03/19 02:27:12;;;;;;;7.35;5.18;;;11.00;99.90;;;;;;5039290;28;20484;-37
2024/03/19 02:29:37;;;;;;;7.05;5.85;;;11.00;99.90;;;;;;5038731;28;20013;-34
2024/03/19 02:32:03;;;;;;;7.57;5.50;;;11.00;99.90;;;;;;5038754;28;20432;-32
2024/03/19 02:34:30;;;;;;;7.32;5.60;;;11.00;99.90;;;;;;5037653;28;20021;-34
2024/03/19 02:36:58;;;;;;;6.88;5.35;;;11.00;99.90;;;;;;5037766;28;20061;-31
2024/03/19 02:39:24;;;;;;;7.07;5.05;;;11.00;99.90;;;;;;5036378;28;20028;-34
2024/03/19 02:41:51;;;;;;;6.70;5.43;;;11.00;99.90;;;;;;5038079;28;20061;-35
2024/03/19 02:44:16;;;;;;;6.70;4.80;;;11.10;99.90;;;;;;5037144;28;20566;-34
2024/03/19 02:46:42;;;;;;;6.63;4.85;;;11.00;99.90;;;;;;5038510;28;20029;-35
2024/03/19 02:49:07;;;;;;;6.28;4.38;;;11.00;99.90;;;;;;5039595;28;20120;-37
2024/03/19 02:51:33;;;;;;;5.85;4.43;;;11.00;99.90;;;;;;5039098;28;20550;-36
2024/03/19 02:53:59;;;;;;;6.15;4.57;;;11.00;99.90;;;;;;5039381;28;20036;-36
2024/03/19 02:56:24;;;;;;;5.53;4.40;;;11.00;99.90;;;;;;5040595;28;20031;-37
2024/03/19 02:58:50;;;;;;;6.88;5.03;;;11.00;99.90;;;;;;5043351;28;20037;-31
2024/03/19 03:01:16;;;;;;;6.07;4.30;;;11.10;99.90;;;;;;5041331;28;20025;-35
2024/03/19 03:03:43;;;;;;;7.07;4.75;;;11.10;99.90;;;;;;5042900;28;20480;-37
2024/03/19 03:06:09;;;;;;;7.45;4.80;;;11.10;99.90;;;;;;5042774;28;20033;-33
2024/03/19 03:08:34;;;;;;;6.30;4.45;;;11.10;99.90;;;;;;5042542;28;20408;-35
2024/03/19 03:11:00;;;;;;;6.43;5.03;;;11.10;99.90;;;;;;5043543;28;20037;-31
2024/03/19 03:13:25;;;;;;;7.40;4.95;;;11.10;99.90;;;;;;5042512;28;20032;-34
2024/03/19 03:15:52;;;;;;;6.75;4.90;;;11.10;99.90;;;;;;5042377;28;20048;-34
2024/03/19 03:18:17;;;;;;;7.55;5.38;;;11.10;99.90;;;;;;5042702;28;20029;-36
2024/03/19 03:20:43;;;;;;;9.38;5.70;;;11.10;99.90;;;;;;5042817;28;20024;-37
2024/03/19 03:23:13;;;;;;;8.43;5.78;;;11.00;99.90;;;;;;5041908;28;20052;-35
2024/03/19 03:25:39;;;;;;;7.32;5.35;;;11.10;99.90;;;;;;5042045;28;20032;-36
2024/03/19 03:28:04;;;;;;;9.57;6.18;;;11.10;99.90;;;;;;5042331;28;20776;-34
2024/03/19 03:30:30;;;;;;;7.25;5.65;;;11.10;99.90;;;;;;5041827;28;20033;-33
2024/03/19 03:32:56;;;;;;;8.25;6.00;;;11.10;99.90;;;;;;5042509;28;20472;-36
2024/03/19 03:35:22;;;;;;;9.13;5.90;;;11.10;99.90;;;;;;5041714;28;20029;-36
2024/03/19 03:37:47;;;;;;;9.02;5.88;;;11.10;99.90;;;;;;5041448;28;20539;-35
2024/03/19 03:40:19;;;;;;;11.70;6.45;;;11.10;99.90;;;;;;5042204;28;20036;-35
2024/03/19 03:42:48;;;;;;;10.35;6.88;;;11.10;99.90;;;;;;5041280;28;20072;-37
2024/03/19 03:45:21;;;;;;;8.48;6.43;;;11.10;99.90;;;;;;5042331;28;20063;-36
2024/03/19 03:47:46;;;;;;;;;;;11.10;99.90;;;;;;5042716;28;20102;-35
2024/03/19 03:50:15;;;;;;;7.85;6.03;;;11.10;99.90;;;;;;5040777;28;19916;-35
2024/03/19 03:52:41;;;;;;;8.70;6.38;;;11.10;99.90;;;;;;5041106;28;20024;-36
2024/03/19 03:55:09;;;;;;;9.20;6.95;;;11.10;99.90;;;;;;5041645;28;20106;-36
2024/03/19 03:57:38;;;;;;;11.45;7.63;;;11.10;99.90;;;;;;5041206;28;20031;-35
2024/03/19 04:00:08;;;;;;;10.90;7.53;;;11.10;99.90;;;;;;5042117;28;20017;-36
2024/03/19 04:02:38;;;;;;;10.88;7.68;;;11.10;99.90;;;;;;5041092;28;20028;-35
2024/03/19 04:05:06;;;;;;;11.07;7.63;;;11.20;99.90;;;;;;5040605;28;20103;-34
2024/03/19 04:07:32;;;;;;;11.20;8.68;;;11.10;99.90;;;;;;5041128;28;20025;-35
2024/03/19 04:09:57;;;;;;;11.00;8.63;;;11.20;99.90;;;;;;5041410;28;20055;-33
2024/03/19 04:12:23;;;;;;;10.82;8.75;;;11.20;99.90;;;;;;5040598;28;20036;-33
2024/03/19 04:14:48;;;;;;;13.68;8.38;;;11.20;99.90;;;;;;5041798;28;20040;-35
2024/03/19 04:17:16;;;;;;;11.50;9.27;;;11.20;99.90;;;;;;5040981;28;20903;-34
2024/03/19 04:19:42;;;;;;;12.95;9.05;;;11.20;99.90;;;;;;5040398;28;20025;-33
2024/03/19 04:22:07;;;;;;;12.90;9.50;;;11.20;99.90;;;;;;5041416;28;20040;-33
2024/03/19 04:24:33;;;;;;;13.32;9.35;;;11.20;99.90;;;;;;5041034;28;20033;-32
2024/03/19 04:27:02;;;;;;;13.50;9.10;;;11.20;99.90;;;;;;5040741;28;20078;-35
2024/03/19 04:29:27;;;;;;;14.02;9.95;;;11.20;99.90;;;;;;5040362;28;20028;-33
2024/03/19 04:31:53;;;;;;;13.68;9.32;;;11.20;99.90;;;;;;5040698;28;20765;-36
2024/03/19 04:34:18;;;;;;;14.15;9.43;;;11.20;99.90;;;;;;5040193;28;20761;-35
2024/03/19 04:36:44;;;;;;;10.80;8.60;;;11.20;99.90;;;;;;5041374;28;20358;-33
2024/03/19 04:39:15;;;;;;;12.75;9.10;;;11.20;99.90;;;;;;5039785;28;20029;-36
2024/03/19 04:41:42;;;;;;;14.23;9.60;;;11.20;99.90;;;;;;5040682;28;20037;-37
2024/03/19 04:44:08;;;;;;;13.15;9.85;;;11.20;99.90;;;;;;5040201;28;20037;-34
2024/03/19 04:46:34;;;;;;;14.82;10.35;;;11.20;99.90;;;;;;5039946;28;20578;-34
2024/03/19 04:49:00;;;;;;;12.77;9.95;;;11.20;99.90;;;;;;5040802;28;20025;-35
2024/03/19 04:51:30;;;;;;;13.65;9.77;;;11.20;99.90;;;;;;5041106;28;20060;-34
2024/03/19 04:53:58;;;;;;;15.02;10.38;;;11.30;99.90;;;;;;5040367;28;20788;-36
2024/03/19 04:56:24;;;;;;;14.75;10.15;;;11.30;99.90;;;;;;5040901;28;20063;-36
2024/03/19 04:58:50;;;;;;;12.93;10.13;;;11.20;99.90;;;;;;5041157;28;20112;-37
2024/03/19 05:01:18;;;;;;;13.77;10.18;;;11.20;99.90;;;;;;5040055;28;20021;-31
2024/03/19 05:03:44;;;;;;;15.82;10.90;;;11.20;99.90;;;;;;5040357;28;20029;-35
2024/03/19 05:06:10;;;;;;;13.95;10.35;;;11.20;99.90;;;;;;5040616;28;20029;-34
2024/03/19 05:08:37;;;;;;;11.75;9.77;;;11.20;99.90;;;;;;5039230;28;20068;-35
2024/03/19 05:11:03;;;;;;;14.70;10.35;;;11.20;99.90;;;;;;5036847;28;20030;-32
2024/03/19 05:13:28;;;;;;;12.60;10.15;;;11.20;99.90;;;;;;5040226;28;20038;-30
2024/03/19 05:15:54;;;;;;;12.73;9.65;;;11.20;99.90;;;;;;5039623;28;20041;-34
2024/03/19 05:18:19;;;;;;;14.40;10.30;;;11.20;99.90;;;;;;5040363;28;20488;-34
2024/03/19 05:20:45;;;;;;;13.45;9.95;;;11.20;99.90;;;;;;5040609;28;20029;-35
2024/03/19 05:23:10;;;;;;;14.65;10.40;;;11.20;99.90;;;;;;5020272;28;20372;-34
2024/03/19 05:25:36;;;;;;;15.63;9.77;;;11.30;99.90;;;;;;5034141;28;20356;-34
2024/03/19 05:28:02;;;;;;;14.35;10.82;;;11.20;99.90;;;;;;5039915;28;20779;-34
2024/03/19 05:30:30;;;;;;;15.27;10.27;;;11.20;99.90;;;;;;5039773;28;20132;-36
2024/03/19 05:32:56;;;;;;;13.05;10.02;;;11.20;99.90;;;;;;5040230;28;20025;-31
2024/03/19 05:35:22;;;;;;;12.93;10.10;;;11.20;99.90;;;;;;5039367;28;20028;-35
2024/03/19 05:37:47;;;;;;;12.25;9.38;;;11.20;99.90;;;;;;5039483;28;20805;-36
2024/03/19 05:40:14;;;;;;;12.23;9.65;;;11.20;99.90;;;;;;5039426;28;20025;-38
2024/03/19 05:42:40;;;;;;;14.77;10.45;;;11.20;99.90;;;;;;5039597;28;20116;-33
2024/03/19 05:45:08;;;;;;;12.50;9.93;;;11.20;99.90;;;;;;5039503;28;20037;-32
2024/03/19 05:47:34;;;;;;;13.30;10.10;;;11.20;99.90;;;;;;5039403;28;20630;-33
2024/03/19 05:50:02;;;;;;;14.90;10.73;;;11.20;99.90;;;;;;5039050;28;20060;-31
2024/03/19 05:52:28;;;;;;;13.23;10.02;;;11.20;99.90;;;;;;5038939;28;20029;-37
2024/03/19 05:54:54;;;;;;;11.90;9.43;;;11.20;99.90;;;;;;5039604;28;20048;-33
2024/03/19 05:57:20;;;;;;;12.35;10.27;;;11.20;99.90;;;;;;5037780;28;20025;-37
2024/03/19 05:59:45;;;;;;;13.38;10.07;;;11.30;99.90;;;;;;5040515;28;20033;-32
2024/03/19 06:02:11;;;;;;;12.23;9.45;;;11.20;99.90;;;;;;5039706;28;20021;-31
2024/03/19 06:04:37;;;;;;;13.23;9.68;;;11.20;99.90;;;;;;5038956;28;20455;-37
2024/03/19 06:07:03;;;;;;;13.73;9.57;;;11.30;99.90;;;;;;5039820;28;20036;-35
2024/03/19 06:09:29;;;;;;;13.48;10.07;;;11.30;99.90;;;;;;5039456;28;20393;-33
2024/03/19 06:11:56;;;;;;;12.18;9.20;;;11.30;99.90;;;;;;5038782;28;20488;-34
2024/03/19 06:14:22;;;;;;;12.82;9.50;;;11.30;99.90;;;;;;5039110;28;20040;-33
2024/03/19 06:16:48;;;;;;;13.30;9.65;;;11.30;99.90;;;;;;5039292;28;20033;-35
2024/03/19 06:19:17;;;;;;;12.00;9.25;;;11.30;99.90;;;;;;5038610;28;20037;-34
2024/03/19 06:21:45;;;;;;;12.55;8.93;;;11.30;99.90;;;;;;5039407;28;20021;-34
2024/03/19 06:24:14;;;;;;;11.05;9.50;;;11.30;99.90;;;;;;5038957;28;20041;-36
2024/03/19 06:26:40;;;;;;;13.15;9.75;;;11.30;99.90;;;;;;5039575;28;20108;-33
2024/03/19 06:29:06;;;;;;;12.18;9.73;;;11.40;99.90;;;;;;5040038;28;20037;-37
2024/03/19 06:31:34;;;;;;;12.27;9.00;;;11.40;99.90;;;;;;5040215;28;20028;-37
2024/03/19 06:34:00;;;;;;;12.65;8.90;;;11.40;99.90;;;;;;5043415;28;20044;-36
2024/03/19 06:36:26;;;;;;;13.20;9.18;;;11.50;99.90;;;;;;5042914;28;20029;-35
2024/03/19 06:38:52;;;;;;;12.40;9.25;;;11.40;99.90;;;;;;5041379;28;20036;-35
2024/03/19 06:41:18;;;;;;;12.00;8.80;;;11.50;99.90;;;;;;5040683;28;20482;-36
2024/03/19 06:43:45;;;;;;;14.30;10.43;;;11.50;99.90;;;;;;5042168;28;20029;-36
2024/03/19 06:46:12;;;;;;;12.00;9.00;;;11.60;99.90;;;;;;5041835;28;20029;-37
2024/03/19 06:48:43;;;;;;;11.75;9.20;;;11.60;99.90;;;;;;5042246;28;20029;-35
2024/03/19 06:51:09;;;;;;;13.73;9.32;;;11.60;99.90;;;;;;5042695;28;20040;-37
2024/03/19 06:53:34;;;;;;;12.10;8.98;;;11.60;99.90;;;;;;5041073;28;20025;-36
2024/03/19 06:56:00;;;;;;;11.52;8.60;;;11.70;99.90;;;;;;5042358;28;20045;-35
2024/03/19 06:58:27;;;;;;;11.45;8.80;;;11.70;99.90;;;;;;5042150;28;20020;-36
2024/03/19 07:00:52;;;;;;;12.90;9.02;;;11.70;99.90;;;;;;5041959;28;20037;-34
2024/03/19 07:03:18;;;;;;;12.57;8.90;;;11.70;99.90;;;;;;5042516;28;20025;-37
2024/03/19 07:05:45;;;;;;;12.80;9.20;;;11.70;99.90;;;;;;5042204;28;20118;-37
2024/03/19 07:08:12;;;;;;;10.10;8.10;;;11.80;99.90;;;;;;5041238;28;20036;-36
2024/03/19 07:10:38;;;;;;;10.95;8.70;;;11.80;99.90;;;;;;5041800;28;20812;-35
2024/03/19 07:13:04;;;;;;;10.63;8.63;;;11.80;99.90;;;;;;5041667;28;20024;-36
2024/03/19 07:15:30;;;;;;;12.70;9.00;;;11.80;99.90;;;;;;5041452;28;20031;-35
2024/03/19 07:17:56;;;;;;;11.50;8.93;;;11.80;99.90;;;;;;5042001;28;20676;-35
2024/03/19 07:20:24;;;;;;;12.55;9.27;;;11.90;99.90;;;;;;5041587;28;20029;-34
2024/03/19 07:22:50;;;;;;;12.55;8.68;;;11.90;99.90;;;;;;5042884;28;20028;-35
2024/03/19 07:25:16;;;;;;;14.60;9.23;;;11.90;99.90;;;;;;5042183;28;20055;-35
2024/03/19 07:27:45;;;;;;;11.02;8.73;;;11.90;99.90;;;;;;5041861;28;20032;-39
2024/03/19 07:30:15;;;;;;;11.63;9.02;;;11.90;99.90;;;;;;5041261;28;20044;-36
2024/03/19 07:32:41;;;;;;;11.10;8.60;;;11.90;99.90;;;;;;5042484;28;20033;-34
2024/03/19 07:35:08;;;;;;;10.18;7.88;;;11.90;99.90;;;;;;5040348;28;20033;-31
2024/03/19 07:37:38;;;;;;;10.00;8.05;;;12.00;99.90;;;;;;5042179;28;20104;-33
2024/03/19 07:40:13;;;;;;;10.82;8.45;;;12.00;99.90;;;;;;5041594;28;20120;-35
2024/03/19 07:42:39;;;;;;;12.98;9.27;;;12.00;99.90;;;;;;5040641;28;20095;-36
2024/03/19 07:45:05;;;;;;;11.55;8.63;;;12.00;99.90;;;;;;5040970;28;20044;-31
2024/03/19 07:47:34;;;;;;;11.00;8.45;;;12.00;99.90;;;;;;5041911;28;20021;-36
2024/03/19 07:50:07;;;;;;;11.45;8.30;;;12.10;99.90;;;;;;5040377;28;20029;-36
2024/03/19 07:52:33;;;;;;;;;;;12.10;99.90;;;;;;5042383;28;20786;-35
2024/03/19 07:54:59;;;;;;;9.45;7.70;;;12.20;99.90;;;;;;5041175;28;19915;-34
2024/03/19 07:57:25;;;;;;;10.15;8.10;;;12.20;99.90;;;;;;5040285;28;20029;-34
2024/03/19 07:59:52;;;;;;;10.85;8.18;;;12.20;99.90;;;;;;5041527;28;20108;-35
2024/03/19 08:02:18;;;;;;;11.23;8.00;;;12.30;99.90;;;;;;5041059;28;20563;-35
2024/03/19 08:04:50;;;;;;;10.20;8.00;;;12.40;99.90;;;;;;5040659;28;20032;-34
2024/03/19 08:07:16;;;;;;;10.13;8.23;;;12.40;99.90;;;;;;5040830;28;20013;-35
2024/03/19 08:09:42;;;;;;;13.88;9.00;;;12.50;99.90;;;;;;5054082;28;20045;-34
2024/03/19 08:12:08;;;;;;;12.25;8.70;;;12.60;99.90;;;;;;5041015;28;20036;-37
2024/03/19 08:14:34;;;;;;;11.35;7.78;;;12.60;99.90;;;;;;5041336;28;20052;-35
2024/03/19 08:16:59;;;;;;;12.52;7.95;;;12.70;99.90;;;;;;5040030;28;20682;-35
2024/03/19 08:19:26;;;;;;;11.77;8.02;;;12.70;99.90;;;;;;5040309;28;20028;-34
2024/03/19 08:21:53;;;;;;;9.48;7.85;;;12.80;99.90;;;;;;5041087;28;20499;-37
2024/03/19 08:24:18;;;;;;;9.40;7.75;;;12.90;99.90;;;;;;5039699;28;20043;-34
2024/03/19 08:26:44;;;;;;;9.52;7.82;;;12.90;99.90;;;;;;5040859;28;20017;-37
2024/03/19 08:29:11;;;;;;;10.15;7.85;;;13.00;99.90;;;;;;5040477;28;20029;-35
2024/03/19 08:31:39;;;;;;;10.02;7.50;;;13.00;99.90;;;;;;5038975;28;20027;-36
2024/03/19 08:34:05;;;;;;;9.98;7.63;;;13.10;99.90;;;;;;5039924;28;20020;-32
2024/03/19 08:36:32;;;;;;;10.05;7.05;;;13.20;99.90;;;;;;5040343;28;20021;-34
2024/03/19 08:38:58;;;;;;;8.18;6.63;;;13.30;99.90;;;;;;5040417;28;20021;-34
2024/03/19 08:41:24;;;;;;;11.00;7.82;;;13.30;99.90;;;;;;5039843;28;20024;-37
2024/03/19 08:43:52;;;;;;;9.75;6.80;;;13.40;99.90;;;;;;5040300;28;20106;-35
2024/03/19 08:46:21;;;;;;;8.85;7.07;;;13.50;99.90;;;;;;5039355;28;20020;-36
2024/03/19 08:48:47;;;;;;;7.10;6.20;;;13.50;99.90;;;;;;5029578;28;20024;-36
2024/03/19 08:51:13;;;;;;;8.73;6.07;;;13.60;99.90;;;;;;5039353;28;20214;-35
2024/03/19 08:53:42;;;;;;;6.78;5.60;;;13.70;99.90;;;;;;5038931;28;20028;-37
2024/03/19 08:56:08;;;;;;;6.78;5.38;;;13.80;99.90;;;;;;5039121;28;20024;-38
2024/03/19 08:58:36;;;;;;;7.25;5.05;;;13.80;99.90;;;;;;5039968;28;20024;-37
2024/03/19 09:01:01;;;;;;;6.60;5.03;;;13.90;99.90;;;;;;5039480;28;20773;-37
2024/03/19 09:03:27;;;;;;;6.38;4.93;;;13.90;99.90;;;;;;5039809;28;20079;-36
2024/03/19 09:06:03;;;;;;;7.10;4.78;;;13.90;99.90;;;;;;5040614;28;20025;-37
2024/03/19 09:08:28;;;;;;;4.95;4.38;;;13.90;99.90;;;;;;5039639;28;20136;-34
2024/03/19 09:10:54;;;;;;;5.00;4.07;;;13.90;99.90;;;;;;5040954;28;20031;-35
2024/03/19 09:13:20;;;;;;;4.25;3.55;;;13.90;99.90;;;;;;5039054;28;20903;-36
2024/03/19 09:15:46;;;;;;;5.78;3.65;;;13.90;99.90;;;;;;5040692;28;20033;-36
2024/03/19 09:18:12;;;;;;;3.53;3.13;;;13.90;99.90;;;;;;5039513;28;20021;-35
2024/03/19 09:20:38;;;;;;;4.38;3.17;;;14.00;99.90;;;;;;5039143;28;20113;-37
2024/03/19 09:23:04;;;;;;;3.13;2.30;;;14.00;99.90;;;;;;5040205;28;20351;-34
2024/03/19 09:25:29;;;;;;;2.78;2.20;;;14.10;99.90;;;;;;5039382;28;20052;-35
2024/03/19 09:27:55;;;;;;;2.28;1.98;;;14.10;99.90;;;;;;5039768;28;20143;-32
2024/03/19 09:30:21;;;;;;;2.20;1.70;;;14.20;99.90;;;;;;5040023;28;20423;-37
2024/03/19 09:32:46;;;;;;;1.88;1.67;;;14.30;99.90;;;;;;5040121;28;20379;-35
2024/03/19 09:35:12;;;;;;;1.60;1.50;;;14.40;99.90;;;;;;5039240;28;20021;-35
2024/03/19 09:37:38;;;;;;;1.65;1.55;;;14.40;99.90;;;;;;5040748;28;20524;-38
2024/03/19 09:40:08;;;;;;;2.05;1.30;;;14.50;99.90;;;;;;5040162;28;20093;-33
2024/03/19 09:42:37;;;;;;;1.75;1.40;;;14.60;99.90;;;;;;5039591;28;20115;-36
2024/03/19 09:45:04;;;;;;;1.70;1.33;;;14.60;99.90;;;;;;5039651;28;20388;-35
2024/03/19 09:47:33;;;;;;;1.25;1.13;;;14.70;99.90;;;;;;5039653;28;20017;-37
2024/03/19 09:50:03;;;;;;;1.50;1.35;;;14.80;99.90;;;;;;5038613;28;20029;-38
2024/03/19 09:52:29;;;;;;;1.00;0.95;;;14.80;99.90;;;;;;5040326;28;20045;-36
2024/03/19 09:54:56;;;;;;;1.88;1.50;;;14.90;99.90;;;;;;5039461;28;20086;-37
2024/03/19 09:57:22;;;;;;;1.27;1.17;;;15.00;99.90;;;;;;5038264;28;20098;-34
2024/03/19 09:59:49;;;;;;;2.08;1.38;;;15.00;99.90;;;;;;5038578;28;20468;-37
2024/03/19 10:02:19;;;;;;;2.15;1.60;;;15.10;99.90;;;;;;5037886;28;20049;-36
2024/03/19 10:04:47;;;;;;;1.77;1.38;;;15.10;99.90;;;;;;5038809;28;20037;-35
2024/03/19 10:07:14;;;;;;;1.73;1.55;;;15.20;99.90;;;;;;5041201;28;20021;-36
2024/03/19 10:09:46;;;;;;;2.05;1.33;;;15.20;99.90;;;;;;5041190;28;20148;-35
2024/03/19 10:12:13;;;;;;;2.05;1.50;;;15.20;99.90;;;;;;5042790;28;20053;-37
2024/03/19 10:14:39;;;;;;;2.47;1.15;;;15.20;99.90;;;;;;5043614;28;20660;-34
2024/03/19 10:17:06;;;;;;;2.40;1.60;;;15.20;99.90;;;;;;5043749;28;20021;-35
2024/03/19 10:19:34;;;;;;;3.00;1.77;;;15.30;99.90;;;;;;5043497;28;20029;-35
2024/03/19 10:22:01;;;;;;;3.60;1.85;;;15.30;99.90;;;;;;5044150;28;20055;-34
2024/03/19 10:24:26;;;;;;;3.70;1.95;;;15.40;99.90;;;;;;5043036;28;20764;-36
2024/03/19 10:26:54;;;;;;;4.10;2.30;;;15.40;99.90;;;;;;5043897;28;20017;-37
2024/03/19 10:29:20;;;;;;;2.53;2.10;;;15.50;99.90;;;;;;5043869;28;20388;-37
2024/03/19 10:31:48;;;;;;;3.25;1.85;;;15.50;99.90;;;;;;5043598;28;20531;-36
2024/03/19 10:34:20;;;;;;;3.20;1.95;;;15.60;99.90;;;;;;5044189;28;20025;-36
2024/03/19 10:36:48;;;;;;;1.90;1.70;;;15.60;99.90;;;;;;5044540;28;20025;-36
2024/03/19 10:39:17;;;;;;;2.35;1.70;;;15.70;99.90;;;;;;5042754;28;20658;-35
2024/03/19 10:41:46;;;;;;;2.38;2.08;;;15.80;99.90;;;;;;5043531;28;20029;-36
2024/03/19 10:44:17;;;;;;;3.63;2.30;;;15.80;99.90;;;;;;5043759;28;20036;-35
2024/03/19 10:46:47;;;;;;;2.40;1.70;;;15.90;99.90;;;;;;5042471;28;20476;-37
2024/03/19 10:49:18;;;;;;;2.20;1.80;;;16.00;99.90;;;;;;5042832;28;20028;-32
2024/03/19 10:51:48;;;;;;;2.72;1.95;;;16.10;99.90;;;;;;5042678;28;20060;-36
2024/03/19 10:54:17;;;;;;;2.45;2.10;;;16.20;99.90;;;;;;5023489;28;20566;-35
2024/03/19 10:56:44;;;;;;;3.53;2.58;;;16.30;99.90;;;;;;5037497;28;20460;-34
2024/03/19 10:59:14;;;;;;;2.80;2.08;;;16.30;99.90;;;;;;5041027;28;20112;-35
2024/03/19 11:01:52;;;;;;;4.85;3.15;;;16.30;99.90;;;;;;5043181;28;20099;-35
2024/03/19 11:04:26;;;;;;;3.97;2.50;;;16.40;99.90;;;;;;5044795;28;20128;-33
2024/03/19 11:06:55;;;;;;;3.13;2.30;;;16.40;99.90;;;;;;5042604;28;20107;-33
2024/03/19 11:09:22;;;;;;;3.20;2.35;;;16.40;99.90;;;;;;5041703;28;20085;-36
2024/03/19 11:11:51;;;;;;;3.42;1.95;;;16.40;99.90;;;;;;5042847;28;20028;-37
2024/03/19 11:14:18;;;;;;;5.07;2.30;;;16.40;99.90;;;;;;5041347;28;20057;-35
2024/03/19 11:16:45;;;;;;;5.57;1.90;;;16.40;99.90;;;;;;5041917;28;20718;-37
2024/03/19 11:19:22;;;;;;;2.50;1.77;;;16.40;99.90;;;;;;5042120;28;20056;-37
2024/03/19 11:21:52;;;;;;;2.70;1.92;;;16.40;99.90;;;;;;5041518;28;20021;-34
2024/03/19 11:24:36;;;;;;;4.10;2.05;;;16.30;99.90;;;;;;5041871;28;20045;-36
2024/03/19 11:27:03;;;;;;;4.38;1.77;;;16.30;99.90;;;;;;5042036;28;20484;-36
2024/03/19 11:29:37;;;;;;;3.10;1.65;;;16.30;99.90;;;;;;5042346;28;20167;-35
2024/03/19 11:32:06;;;;;;;1.77;1.58;;;16.30;99.90;;;;;;5042146;28;20036;-38
2024/03/19 11:34:35;;;;;;;2.00;1.25;;;16.30;99.90;;;;;;5040900;28;20036;-36
2024/03/19 11:37:00;;;;;;;2.00;1.38;;;16.30;99.90;;;;;;5042291;28;20025;-37
2024/03/19 11:39:27;;;;;;;2.35;1.30;;;16.30;99.90;;;;;;5041008;28;20074;-37
2024/03/19 11:41:54;;;;;;;2.85;1.40;;;16.40;99.90;;;;;;5041586;28;20131;-35
2024/03/19 11:44:21;;;;;;;3.15;1.60;;;16.50;99.90;;;;;;5040422;28;20044;-33
2024/03/19 11:46:48;;;;;;;2.30;1.67;;;16.60;99.90;;;;;;5040205;28;20079;-37
2024/03/19 11:49:26;;;;;;;3.42;1.70;;;16.80;99.90;;;;;;5039199;28;20033;-37
2024/03/19 11:51:59;;;;;;;2.90;1.50;;;16.90;99.90;;;;;;5041157;28;20967;-37
2024/03/19 11:54:29;;;;;;;2.03;1.45;;;17.10;99.90;;;;;;5040509;28;20044;-39
2024/03/19 11:56:56;;;;;;;2.42;1.30;;;17.10;99.90;;;;;;5040526;28;20828;-36
2024/03/19 11:59:25;;;;;;;2.90;1.50;;;17.20;99.90;;;;;;5039879;28;20044;-36
2024/03/19 12:01:56;;;;;;;2.90;1.15;;;17.30;99.90;;;;;;5040051;28;20040;-35
2024/03/19 12:04:23;;;;;;;2.38;1.35;;;17.40;99.90;;;;;;5039976;28;20766;-38
2024/03/19 12:06:50;;;;;;;3.60;1.58;;;17.40;99.90;;;;;;5040719;28;20132;-31
2024/03/19 12:09:17;;;;;;;3.92;1.48;;;17.40;99.90;;;;;;5036440;28;20053;-33
2024/03/19 12:11:47;;;;;;;2.75;1.35;;;17.40;99.90;;;;;;5039953;28;20107;-38
2024/03/19 12:14:17;;;;;;;4.97;1.40;;;17.40;99.90;;;;;;5040892;28;20037;-36
2024/03/19 12:16:44;;;;;;;3.47;1.50;;;17.50;99.90;;;;;;5040614;28;20020;-36
2024/03/19 12:19:14;;;;;;;2.67;1.40;;;17.50;99.90;;;;;;5040623;28;20106;-37
2024/03/19 12:21:44;;;;;;;2.13;1.30;;;17.50;99.90;;;;;;5039929;28;20028;-35
2024/03/19 12:24:13;;;;;;;4.03;1.60;;;17.50;99.90;;;;;;5039465;28;20048;-35
2024/03/19 12:26:43;;;;;;;2.60;1.30;;;17.50;99.90;;;;;;5040357;28;20017;-36
2024/03/19 12:29:29;;;;;;;2.30;1.23;;;17.50;99.90;;;;;;5039070;28;20053;-36
2024/03/19 12:32:04;;;;;;;3.58;1.42;;;17.50;99.90;;;;;;5039520;28;20102;-35
2024/03/19 12:37:16;;;;;;;3.38;1.70;;;17.70;99.90;;;;;;5040068;28;20041;-35
2024/03/19 12:39:43;;;;;;;3.05;1.45;;;17.70;99.90;;;;;;5040076;28;20510;-35
2024/03/19 12:42:14;;;;;;;3.67;1.60;;;17.70;99.90;;;;;;5040402;28;20028;-37
2024/03/19 12:44:42;;;;;;;2.65;1.58;;;17.80;99.90;;;;;;5040063;28;20040;-34
2024/03/19 12:47:13;;;;;;;2.38;1.45;;;17.80;99.90;;;;;;5040104;28;20059;-34